Time;durP1;ratioP1;P1;durP2;ratioP2;P2;SDS_P1;SDS_P2;PMS_P1;PMS_P2;Temp;Humidity;BMP_temperature;BMP_pressure;BME280_temperature;BME280_humidity;BME280_pressure;Samples;Min_cycle;Max_cycle;Signal;HPM_P1;HPM_P2
2022/01/08 00:00:09;;;;;;;;;0.00;0.00;;;;;6.68;68.77;101212.94;5038591;28;45466;-61
2022/01/08 00:02:35;;;;;;;;;1.00;0.00;;;;;6.67;68.60;101208.63;5041581;28;45534;-59
2022/01/08 00:05:01;;;;;;;;;0.00;0.00;;;;;6.64;68.17;101210.53;5042206;28;45441;-60
2022/01/08 00:07:27;;;;;;;;;0.00;0.00;;;;;6.58;68.18;101221.19;5041601;28;45960;-59
2022/01/08 00:09:53;;;;;;;;;0.00;0.00;;;;;6.55;68.57;101227.38;5042147;28;45438;-60
2022/01/08 00:12:18;;;;;;;;;1.00;0.00;;;;;6.51;68.35;101225.78;5042606;28;45394;-62
2022/01/08 00:14:44;;;;;;;;;0.00;0.00;;;;;6.48;68.29;101235.50;5042171;28;45499;-66
2022/01/08 00:17:09;;;;;;;;;0.00;0.00;;;;;6.47;69.40;101239.88;5042407;28;45531;-69
2022/01/08 00:19:36;;;;;;;;;0.00;0.00;;;;;6.46;68.95;101253.88;5040024;28;45523;-67
2022/01/08 00:22:01;;;;;;;;;0.00;0.00;;;;;6.42;68.92;101247.88;5023441;28;45487;-60
2022/01/08 00:24:27;;;;;;;;;0.50;0.00;;;;;6.40;68.77;101244.47;5041156;28;45541;-64
2022/01/08 00:26:53;;;;;;;;;0.00;0.00;;;;;6.39;68.85;101247.13;5041955;28;45613;-62
2022/01/08 00:29:18;;;;;;;;;0.00;0.00;;;;;6.32;69.12;101246.50;5029946;28;45483;-65
2022/01/08 00:31:44;;;;;;;;;0.00;0.00;;;;;6.31;68.89;101250.00;5042137;28;45509;-62
2022/01/08 00:34:09;;;;;;;;;0.00;0.00;;;;;6.27;69.67;101251.03;5040626;28;45654;-63
2022/01/08 00:36:35;;;;;;;;;0.00;0.00;;;;;6.24;69.46;101253.75;5040531;28;45974;-59
2022/01/08 00:39:00;;;;;;;;;0.00;0.00;;;;;6.20;69.23;101253.88;5039715;28;45337;-62
2022/01/08 00:41:26;;;;;;;;;0.00;0.00;;;;;6.19;69.26;101262.66;5040836;28;45356;-61
2022/01/08 00:43:52;;;;;;;;;0.00;0.00;;;;;6.15;69.38;101274.94;5022186;28;45651;-61
2022/01/08 00:46:18;;;;;;;;;0.00;0.00;;;;;6.15;69.51;101273.19;5039981;28;45483;-61
2022/01/08 00:48:44;;;;;;;;;0.75;0.00;;;;;6.14;69.67;101279.31;5039834;28;45686;-63
2022/01/08 00:51:10;;;;;;;;;1.00;0.00;;;;;6.14;69.95;101278.47;5040557;28;45534;-62
2022/01/08 00:53:36;;;;;;;;;0.50;0.00;;;;;6.11;69.68;101286.44;5037904;28;45467;-62
2022/01/08 00:56:01;;;;;;;;;0.00;0.00;;;;;6.10;69.99;101296.03;5039029;28;45454;-62
2022/01/08 00:58:27;;;;;;;;;0.00;0.00;;;;;6.09;69.81;101294.34;5040364;28;45287;-67
2022/01/08 01:00:53;;;;;;;;;0.00;0.00;;;;;6.09;69.85;101301.31;5040643;28;45459;-63
2022/01/08 01:03:19;;;;;;;;;0.50;0.00;;;;;6.08;69.62;101305.69;5040361;28;45515;-63
2022/01/08 01:05:44;;;;;;;;;0.00;0.00;;;;;6.06;69.99;101306.63;5040100;28;45427;-64
2022/01/08 01:08:10;;;;;;;;;0.00;0.00;;;;;6.05;70.65;101307.53;5040250;28;45505;-63
2022/01/08 01:10:36;;;;;;;;;0.00;0.00;;;;;6.07;70.43;101309.19;5040441;28;45357;-64
2022/01/08 01:13:01;;;;;;;;;0.00;0.00;;;;;6.09;70.55;101304.78;5039349;28;45419;-61
2022/01/08 01:15:27;;;;;;;;;0.00;0.00;;;;;6.12;70.36;101309.06;5039919;28;46235;-61
2022/01/08 01:17:52;;;;;;;;;2.00;0.00;;;;;6.12;69.77;101306.44;5040043;28;46386;-62
2022/01/08 01:20:20;;;;;;;;;0.00;0.00;;;;;6.14;69.85;101309.88;5040219;28;45531;-62
2022/01/08 01:25:17;;;;;;;;;0.00;0.00;;;;;6.15;70.89;101307.19;5039774;28;45402;-63
2022/01/08 01:30:25;;;;;;;;;1.00;0.00;;;;;6.15;70.93;101298.50;5034733;28;45860;-65
2022/01/08 01:41:30;;;;;;;;;1.00;1.00;;;;;6.12;70.62;101302.06;5038648;28;45810;-65
2022/01/08 01:47:29;;;;;;;;;2.00;0.00;;;;;6.11;69.84;101302.13;5040613;28;46046;-64
2022/01/08 01:49:23;;;;;;;;;0.75;0.75;;;;;6.10;69.94;101301.28;5024460;28;45583;-65
2022/01/08 01:51:49;;;;;;;;;1.00;0.00;;;;;6.12;70.65;101311.69;5042448;28;45272;-65
2022/01/08 01:54:14;;;;;;;;;2.75;0.00;;;;;6.12;70.41;101311.69;5042621;28;45488;-66
2022/01/08 01:56:40;;;;;;;;;2.00;0.75;;;;;6.11;69.96;101317.81;5042140;28;45388;-65
2022/01/08 01:59:05;;;;;;;;;1.00;0.00;;;;;6.10;70.11;101324.81;5042178;28;45335;-65
2022/01/08 02:01:31;;;;;;;;;0.00;0.00;;;;;6.11;70.20;101330.91;5042275;28;45276;-65
2022/01/08 02:03:57;;;;;;;;;1.00;1.00;;;;;6.10;69.75;101324.81;5042286;28;45522;-66
2022/01/08 02:06:23;;;;;;;;;1.00;1.00;;;;;6.10;70.49;101318.72;5041892;28;45399;-65
2022/01/08 02:08:48;;;;;;;;;0.50;0.50;;;;;6.11;69.90;101317.81;5042253;28;45334;-66
2022/01/08 02:11:17;;;;;;;;;1.00;1.00;;;;;6.12;70.00;101306.44;5042226;28;45256;-65
2022/01/08 02:13:42;;;;;;;;;0.75;0.75;;;;;6.14;70.31;101302.00;5042240;28;45536;-65
2022/01/08 02:16:16;;;;;;;;;1.00;1.00;;;;;6.15;70.25;101315.03;5041924;28;45288;-65
2022/01/08 02:18:46;;;;;;;;;1.75;0.50;;;;;6.15;69.68;101320.28;5041415;28;45365;-65
2022/01/08 02:21:12;;;;;;;;;2.00;2.00;;;;;6.12;70.09;101320.38;5041942;28;45356;-65
2022/01/08 02:23:39;;;;;;;;;3.50;1.00;;;;;6.13;69.83;101327.31;5041783;28;45426;-65
2022/01/08 02:26:06;;;;;;;;;3.50;1.00;;;;;6.12;70.16;101335.22;5041491;28;45984;-65
2022/01/08 02:28:33;;;;;;;;;2.50;1.00;;;;;6.12;69.88;101337.84;5041615;28;45387;-65
2022/01/08 02:30:58;;;;;;;;;1.00;1.00;;;;;6.10;70.10;101332.66;5024158;28;45394;-65
2022/01/08 02:33:25;;;;;;;;;4.50;1.25;;;;;6.12;69.67;101330.84;5041576;28;45582;-65
2022/01/08 02:35:51;;;;;;;;;1.50;1.00;;;;;6.12;69.98;101327.38;5041779;28;46067;-64
2022/01/08 02:38:16;;;;;;;;;2.00;2.00;;;;;6.11;69.82;101326.53;5041420;28;45478;-65
2022/01/08 02:40:50;;;;;;;;;5.00;2.50;;;;;6.11;70.54;101334.38;5041841;28;45233;-64
2022/01/08 02:43:16;;;;;;;;;1.00;1.00;;;;;6.12;70.08;101336.06;5041608;28;45159;-64
2022/01/08 02:45:41;;;;;;;;;1.25;1.25;;;;;6.12;70.33;101328.22;5023380;28;46743;-65
2022/01/08 02:48:07;;;;;;;;;1.75;1.00;;;;;6.12;70.67;101328.22;5041040;28;45209;-64
2022/01/08 02:50:33;;;;;;;;;2.25;1.00;;;;;6.12;70.57;101320.38;5041636;28;45327;-64
2022/01/08 02:52:58;;;;;;;;;2.00;1.00;;;;;6.12;70.14;101332.59;5041639;28;45566;-64
2022/01/08 02:55:24;;;;;;;;;1.00;0.00;;;;;6.10;69.61;101330.03;5041472;28;45425;-65
2022/01/08 02:57:49;;;;;;;;;2.75;1.00;;;;;6.11;70.05;101336.13;5041157;28;45454;-64
2022/01/08 03:00:18;;;;;;;;;1.00;1.00;;;;;6.10;70.52;101350.13;5041595;28;45423;-64
2022/01/08 03:02:45;;;;;;;;;5.00;1.75;;;;;6.10;69.75;101344.88;5041299;28;45575;-65
2022/01/08 03:05:12;;;;;;;;;1.00;1.00;;;;;6.09;70.56;101344.03;5041278;28;46101;-65
2022/01/08 03:07:38;;;;;;;;;2.50;1.00;;;;;6.09;69.63;101351.03;5041230;28;45217;-65
2022/01/08 03:10:05;;;;;;;;;0.75;0.75;;;;;6.09;69.98;101354.50;5041436;28;45390;-65
2022/01/08 03:12:31;;;;;;;;;1.25;1.00;;;;;6.09;69.74;101340.56;5041164;28;45597;-65
2022/01/08 03:14:56;;;;;;;;;5.25;1.00;;;;;6.11;69.89;101333.50;5041098;28;45678;-65
2022/01/08 03:17:22;;;;;;;;;1.00;1.00;;;;;6.12;69.91;101328.22;5040990;28;45331;-66
2022/01/08 03:19:51;;;;;;;;;2.00;1.00;;;;;6.15;70.39;101319.41;5040767;28;45489;-66
2022/01/08 03:22:17;;;;;;;;;2.00;2.00;;;;;6.15;70.12;101317.66;5041105;28;45435;-66
2022/01/08 03:24:43;;;;;;;;;3.50;1.25;;;;;6.15;70.38;101322.88;5041072;28;45292;-65
2022/01/08 03:27:08;;;;;;;;;3.00;2.00;;;;;6.17;70.45;101322.00;5040810;28;45493;-65
2022/01/08 03:29:34;;;;;;;;;2.00;1.00;;;;;6.16;70.06;101308.03;5040863;28;45745;-66
2022/01/08 03:31:59;;;;;;;;;0.75;0.00;;;;;6.17;69.69;101315.00;5040832;28;45516;-65
2022/01/08 03:34:25;;;;;;;;;1.75;1.00;;;;;6.14;69.42;101313.34;5038941;28;45479;-65
2022/01/08 03:36:50;;;;;;;;;1.00;1.00;;;;;6.13;69.89;101316.84;5039085;28;45469;-66
2022/01/08 03:39:18;;;;;;;;;1.00;0.75;;;;;6.11;69.25;101310.81;5041030;28;45415;-65
2022/01/08 03:41:44;;;;;;;;;0.00;0.00;;;;;6.10;69.08;101313.50;5040877;28;45394;-66
2022/01/08 03:44:09;;;;;;;;;0.00;0.00;;;;;6.08;69.27;101318.78;5040820;28;45313;-65
2022/01/08 03:46:36;;;;;;;;;0.00;0.00;;;;;6.08;69.53;101326.63;5040713;28;45297;-65
2022/01/08 03:51:29;;;;;;;;;0.00;0.00;;;;;6.09;68.61;101333.56;5040568;28;45365;-66
2022/01/08 03:53:56;;;;;;;;;1.00;0.00;;;;;6.10;69.18;101332.66;5040784;28;45353;-65
2022/01/08 03:56:22;;;;;;;;;0.50;0.00;;;;;6.09;68.73;101324.88;5022514;28;45339;-65
2022/01/08 03:58:47;;;;;;;;;0.00;0.00;;;;;6.10;69.25;101316.97;5040710;28;45217;-65
2022/01/08 04:01:13;;;;;;;;;0.00;0.00;;;;;6.11;68.55;101318.66;5040649;28;45349;-65
2022/01/08 04:03:38;;;;;;;;;1.00;0.00;;;;;6.10;69.38;101318.72;5040464;28;45357;-66
2022/01/08 04:06:04;;;;;;;;;0.00;0.00;;;;;6.10;69.26;101313.50;5040205;28;45237;-65
2022/01/08 04:08:29;;;;;;;;;0.00;0.00;;;;;6.11;69.43;101304.75;5040849;28;45260;-65
2022/01/08 04:10:55;;;;;;;;;0.00;0.00;;;;;6.11;69.14;101320.44;5040618;28;45245;-65
2022/01/08 04:13:25;;;;;;;;;0.00;0.00;;;;;6.08;68.96;101329.25;5040523;28;46167;-65
2022/01/08 04:15:56;;;;;;;;;0.00;0.00;;;;;6.11;69.35;101334.38;5040409;28;45363;-65
2022/01/08 04:18:21;;;;;;;;;1.00;0.00;;;;;6.14;69.48;101336.03;5040202;28;45509;-65
2022/01/08 04:21:58;;;;;;;;;3.00;0.25;;;;;6.15;69.25;101332.50;5040235;28;45274;-65
2022/01/08 04:23:36;;;;;;;;;0.00;0.00;;;;;6.15;68.75;101330.72;5034556;28;45942;-65
2022/01/08 04:26:02;;;;;;;;;1.00;0.00;;;;;6.19;69.10;101320.19;5040278;28;45383;-65
2022/01/08 04:28:29;;;;;;;;;1.00;0.00;;;;;6.24;69.38;101318.25;5040144;28;45269;-65
2022/01/08 04:30:54;;;;;;;;;0.75;0.00;;;;;6.27;68.93;101316.44;5040550;28;45402;-65
2022/01/08 04:33:20;;;;;;;;;1.00;1.00;;;;;6.29;68.90;101316.38;5039824;28;46030;-65
2022/01/08 04:35:45;;;;;;;;;0.25;0.00;;;;;6.32;69.60;101314.53;5040157;28;45466;-65
2022/01/08 04:38:12;;;;;;;;;1.50;0.00;;;;;6.35;68.88;101316.19;5040071;28;45307;-65
2022/01/08 04:40:38;;;;;;;;;0.25;0.00;;;;;6.37;69.40;101322.22;5040359;28;45237;-65
2022/01/08 04:43:04;;;;;;;;;2.00;0.00;;;;;6.40;69.59;101311.66;5039916;28;46091;-65
2022/01/08 04:45:30;;;;;;;;;2.00;1.00;;;;;6.43;69.26;101316.78;5040191;28;45353;-65
2022/01/08 04:48:01;;;;;;;;;1.00;0.00;;;;;6.47;69.19;101314.91;5041130;28;45561;-65
2022/01/08 04:50:28;;;;;;;;;0.00;0.00;;;;;6.47;69.45;101317.53;5043576;28;45536;-65
2022/01/08 04:52:55;;;;;;;;;2.00;0.00;;;;;6.46;69.50;101318.44;5043409;28;46237;-65
2022/01/08 04:55:21;;;;;;;;;0.50;0.50;;;;;6.48;68.89;101340.16;5043708;28;45535;-65
2022/01/08 04:57:47;;;;;;;;;3.00;0.00;;;;;6.48;69.44;101345.41;5042881;28;45412;-65
2022/01/08 05:00:15;;;;;;;;;1.75;0.00;;;;;6.44;69.37;101347.28;5042833;28;45463;-65
2022/01/08 05:02:40;;;;;;;;;0.00;0.00;;;;;6.38;69.44;101345.69;5042596;28;45304;-65
2022/01/08 05:05:06;;;;;;;;;1.75;0.00;;;;;6.33;69.99;101344.16;5043221;28;45303;-65
2022/01/08 05:07:32;;;;;;;;;0.00;0.00;;;;;6.28;69.50;101348.69;5043066;28;45455;-65
2022/01/08 05:09:57;;;;;;;;;0.50;0.25;;;;;6.29;70.24;101345.16;5043435;28;45520;-66
2022/01/08 05:12:23;;;;;;;;;1.00;0.00;;;;;6.32;69.41;101348.53;5043046;28;45505;-65
2022/01/08 05:14:49;;;;;;;;;0.00;0.00;;;;;6.37;69.84;101349.22;5043219;28;45252;-65
2022/01/08 05:17:14;;;;;;;;;0.75;0.75;;;;;6.41;70.07;101343.00;5043099;28;45413;-65
2022/01/08 05:19:46;;;;;;;;;1.75;0.00;;;;;6.50;70.59;101341.00;5042349;28;45355;-65
2022/01/08 05:22:20;;;;;;;;;0.25;0.25;;;;;6.51;69.75;101322.63;5042260;28;46753;-65
2022/01/08 05:24:46;;;;;;;;;0.00;0.00;;;;;6.59;70.13;101332.84;5043013;28;45306;-65
2022/01/08 05:27:16;;;;;;;;;0.00;0.00;;;;;6.62;70.15;101338.81;5024981;28;45395;-65
2022/01/08 05:29:42;;;;;;;;;0.00;0.00;;;;;6.68;69.61;101335.13;5042863;28;45251;-65
2022/01/08 05:32:08;;;;;;;;;0.00;0.00;;;;;6.71;69.91;101330.69;5042807;28;45468;-65
2022/01/08 05:34:33;;;;;;;;;0.00;0.00;;;;;6.76;69.66;101334.88;5042517;28;45325;-65
2022/01/08 05:36:59;;;;;;;;;0.75;0.75;;;;;6.78;69.56;101326.06;5042646;28;45423;-65
2022/01/08 05:39:25;;;;;;;;;0.00;0.00;;;;;6.82;69.80;101316.34;5042893;28;45399;-65
2022/01/08 05:41:50;;;;;;;;;0.00;0.00;;;;;6.89;70.00;101312.63;5042491;28;45431;-65
2022/01/08 05:44:16;;;;;;;;;0.50;0.25;;;;;6.91;69.63;101295.09;5042872;28;45317;-65
2022/01/08 05:46:44;;;;;;;;;0.50;0.00;;;;;6.94;69.80;101297.59;5042610;28;45233;-65
2022/01/08 05:49:12;;;;;;;;;2.00;0.00;;;;;6.96;70.00;101301.88;5042176;28;45512;-65
2022/01/08 05:51:37;;;;;;;;;3.00;0.00;;;;;7.01;69.81;101293.84;5042555;28;45275;-65
2022/01/08 05:54:03;;;;;;;;;2.00;0.00;;;;;7.02;69.72;101286.84;5042545;28;45261;-65
2022/01/08 05:56:28;;;;;;;;;0.50;0.00;;;;;7.04;69.36;101282.41;5042496;28;45359;-65
2022/01/08 05:58:54;;;;;;;;;2.50;0.00;;;;;7.05;69.98;101302.47;5041666;28;45228;-65
2022/01/08 06:01:20;;;;;;;;;3.00;0.00;;;;;7.05;69.83;101294.59;5041950;28;45909;-65
2022/01/08 06:03:45;;;;;;;;;2.50;1.00;;;;;7.07;69.73;101298.00;5042099;28;45359;-65
2022/01/08 06:06:11;;;;;;;;;0.00;0.00;;;;;7.10;69.49;101308.38;5024062;28;45344;-65
2022/01/08 06:08:36;;;;;;;;;1.00;1.00;;;;;7.13;69.60;101318.75;5042366;28;45463;-65
2022/01/08 06:11:02;;;;;;;;;0.00;0.00;;;;;7.17;70.00;101313.34;5042205;28;45291;-65
2022/01/08 06:13:28;;;;;;;;;2.75;0.25;;;;;7.23;69.64;101320.13;5042240;28;45340;-65
2022/01/08 06:15:53;;;;;;;;;0.75;0.75;;;;;7.28;69.57;101321.69;5042287;28;45418;-65
2022/01/08 06:18:19;;;;;;;;;2.25;0.00;;;;;7.32;69.72;101314.56;5041968;28;45394;-65
2022/01/08 06:20:44;;;;;;;;;2.50;0.75;;;;;7.36;69.31;101310.06;5041779;28;45252;-65
2022/01/08 06:23:10;;;;;;;;;1.00;0.00;;;;;7.37;69.50;101296.91;5042027;28;45306;-66
2022/01/08 06:25:35;;;;;;;;;0.00;0.00;;;;;7.38;69.65;101284.66;5041971;28;45327;-65
2022/01/08 06:28:00;;;;;;;;;2.00;0.00;;;;;7.38;69.35;101277.63;5035821;28;45498;-66
2022/01/08 06:30:26;;;;;;;;;2.00;0.25;;;;;7.36;69.48;101266.38;5025544;28;46068;-65
2022/01/08 06:32:51;;;;;;;;;1.50;0.75;;;;;7.36;69.70;101282.09;5037346;28;45277;-65
2022/01/08 06:35:17;;;;;;;;;2.50;1.00;;;;;7.37;69.50;101290.81;5036517;28;45715;-68
2022/01/08 06:37:42;;;;;;;;;1.00;0.00;;;;;7.38;69.62;101306.47;5039925;28;45429;-67
2022/01/08 06:40:09;;;;;;;;;0.00;0.00;;;;;7.40;69.66;101298.53;5040564;28;45455;-68
2022/01/08 06:42:34;;;;;;;;;1.00;1.00;;;;;7.44;69.55;101292.28;5041408;28;45380;-68
2022/01/08 06:45:00;;;;;;;;;1.25;1.00;;;;;7.45;69.44;101281.75;5041512;28;45280;-67
2022/01/08 06:47:25;;;;;;;;;1.75;0.00;;;;;7.50;69.73;101282.44;5041151;28;45563;-69
2022/01/08 06:49:51;;;;;;;;;0.00;0.00;;;;;7.53;69.71;101282.31;5040801;28;46129;-68
2022/01/08 06:52:16;;;;;;;;;0.75;0.00;;;;;7.57;69.71;101278.63;5023436;28;45440;-67
2022/01/08 06:54:42;;;;;;;;;2.00;0.00;;;;;7.60;69.73;101272.44;5041536;28;45249;-69
2022/01/08 06:57:07;;;;;;;;;2.50;0.75;;;;;7.63;69.50;101263.59;5036778;28;45469;-67
2022/01/08 06:59:33;;;;;;;;;0.50;0.25;;;;;7.67;69.70;101271.31;5024354;28;45482;-67
2022/01/08 07:01:58;;;;;;;;;0.25;0.25;;;;;7.67;69.50;101273.06;5041438;28;45343;-68
2022/01/08 07:04:24;;;;;;;;;0.00;0.00;;;;;7.69;69.87;101260.75;5041154;28;45463;-68
2022/01/08 07:06:49;;;;;;;;;1.00;0.00;;;;;7.73;69.76;101268.41;5041653;28;45279;-68
2022/01/08 07:09:15;;;;;;;;;1.00;0.75;;;;;7.76;69.57;101265.69;5040888;28;45583;-67
2022/01/08 07:11:40;;;;;;;;;0.50;0.50;;;;;7.78;69.54;101260.38;5040422;28;45379;-67
2022/01/08 07:14:06;;;;;;;;;1.00;1.00;;;;;7.80;69.45;101263.78;5041266;28;45403;-67
2022/01/08 07:16:31;;;;;;;;;1.75;1.00;;;;;7.79;69.59;101255.06;5041330;28;45610;-68
2022/01/08 07:18:57;;;;;;;;;2.00;0.00;;;;;7.78;69.41;101248.13;5040868;28;45502;-68
2022/01/08 07:21:22;;;;;;;;;0.00;0.00;;;;;7.79;69.77;101256.84;5040944;28;45431;-69
2022/01/08 07:23:48;;;;;;;;;0.25;0.25;;;;;7.78;69.80;101244.66;5041119;28;45258;-68
2022/01/08 07:26:14;;;;;;;;;0.00;0.00;;;;;7.80;69.63;101238.41;5041240;28;45420;-68
2022/01/08 07:28:40;;;;;;;;;4.00;1.00;;;;;7.81;69.78;101228.78;5029965;28;45248;-68
2022/01/08 07:31:06;;;;;;;;;3.00;0.00;;;;;7.76;69.95;101230.75;5030256;28;45169;-67
2022/01/08 07:33:31;;;;;;;;;2.00;0.00;;;;;7.73;70.13;101234.31;5040653;28;45241;-67
2022/01/08 07:35:57;;;;;;;;;2.25;0.00;;;;;7.73;70.16;101225.59;5041270;28;45396;-67
2022/01/08 07:38:22;;;;;;;;;2.75;1.00;;;;;7.70;70.29;101226.59;5040755;28;45302;-67
2022/01/08 07:40:52;;;;;;;;;0.25;0.25;;;;;7.69;70.39;101239.78;5040954;28;45424;-67
2022/01/08 07:43:18;;;;;;;;;1.50;0.00;;;;;7.66;70.87;101235.50;5040871;28;45462;-67
2022/01/08 07:45:44;;;;;;;;;3.00;1.00;;;;;7.64;70.76;101237.31;5041037;28;45272;-66
2022/01/08 07:48:09;;;;;;;;;0.25;0.25;;;;;7.64;70.97;101229.44;5040119;28;46365;-67
2022/01/08 07:50:35;;;;;;;;;3.50;3.00;;;;;7.66;71.41;101227.66;5022872;28;45345;-67
2022/01/08 07:53:00;;;;;;;;;2.75;1.75;;;;;7.69;71.37;101224.03;5041115;28;45225;-67
2022/01/08 07:55:26;;;;;;;;;2.75;2.00;;;;;7.72;71.52;101218.66;5041173;28;45460;-67
2022/01/08 07:57:51;;;;;;;;;6.75;1.50;;;;;7.76;71.56;101220.25;5029676;28;45300;-67
2022/01/08 08:00:17;;;;;;;;;3.00;1.75;;;;;7.78;72.03;101210.56;5029787;28;45290;-67
2022/01/08 08:02:42;;;;;;;;;5.00;3.00;;;;;7.80;71.75;101208.72;5040522;28;45320;-67
2022/01/08 08:05:08;;;;;;;;;5.25;3.00;;;;;7.81;71.89;101210.41;5041126;28;45473;-67
2022/01/08 08:07:36;;;;;;;;;2.75;1.00;;;;;7.84;72.17;101197.19;5040267;28;45366;-67
2022/01/08 08:10:06;;;;;;;;;2.00;2.00;;;;;7.86;71.78;101197.97;5040643;28;45414;-67
2022/01/08 08:12:31;;;;;;;;;7.50;2.25;;;;;7.88;72.18;101198.78;5040488;28;45466;-67
2022/01/08 08:14:57;;;;;;;;;5.75;2.00;;;;;7.90;71.97;101194.34;5040740;28;45258;-67
2022/01/08 08:17:23;;;;;;;;;5.50;2.00;;;;;7.90;71.67;101190.81;5040050;28;46261;-67
2022/01/08 08:19:48;;;;;;;;;5.00;2.75;;;;;7.91;72.09;101185.53;5040082;28;45318;-67
2022/01/08 08:22:13;;;;;;;;;5.50;2.50;;;;;7.95;72.01;101170.53;5040986;28;45325;-67
2022/01/08 08:24:39;;;;;;;;;4.50;2.75;;;;;7.97;71.72;101180.03;5044266;28;45488;-67
2022/01/08 08:27:05;;;;;;;;;13.00;3.00;;;;;7.98;71.71;101176.50;5043589;28;45524;-67
2022/01/08 08:29:30;;;;;;;;;3.50;2.00;;;;;8.02;71.82;101171.97;5025793;28;45526;-67
2022/01/08 08:31:56;;;;;;;;;4.50;2.75;;;;;8.07;71.83;101170.03;5040116;28;45464;-67
2022/01/08 08:34:21;;;;;;;;;7.25;2.00;;;;;8.10;71.60;101159.38;5043780;28;45265;-67
2022/01/08 08:36:47;;;;;;;;;3.50;3.50;;;;;8.11;71.64;101151.44;5043527;28;45380;-67
2022/01/08 08:39:12;;;;;;;;;2.50;2.00;;;;;8.15;71.69;101151.34;5043668;28;45289;-67
2022/01/08 08:41:38;;;;;;;;;6.50;0.50;;;;;8.18;71.77;101151.19;5043770;28;45682;-67
2022/01/08 08:44:04;;;;;;;;;2.00;2.00;;;;;8.19;72.07;101145.03;5043904;28;45392;-67
2022/01/08 08:46:29;;;;;;;;;4.50;2.75;;;;;8.20;72.61;101139.69;5043520;28;45321;-67
2022/01/08 08:48:55;;;;;;;;;0.00;0.00;;;;;8.24;72.93;101132.56;5025399;28;45391;-67
2022/01/08 08:51:20;;;;;;;;;5.25;3.00;;;;;8.27;73.12;101137.66;5043680;28;45204;-67
2022/01/08 08:53:45;;;;;;;;;3.25;2.75;;;;;8.30;73.14;101127.06;5043767;28;45230;-67
2022/01/08 08:56:11;;;;;;;;;6.50;5.50;;;;;8.32;73.46;101117.34;5025271;28;45428;-67
2022/01/08 08:58:36;;;;;;;;;7.75;3.50;;;;;8.33;73.35;101114.63;5026390;28;45344;-68
2022/01/08 09:01:02;;;;;;;;;9.00;6.00;;;;;8.35;73.69;101115.44;5038565;28;45324;-66
2022/01/08 09:03:27;;;;;;;;;8.00;5.00;;;;;8.33;74.17;101124.28;5042805;28;45566;-68
2022/01/08 09:05:53;;;;;;;;;9.50;3.00;;;;;8.32;73.99;101120.81;5028822;28;46106;-67
2022/01/08 09:08:18;;;;;;;;;5.25;3.25;;;;;8.33;74.58;101113.78;5011859;28;45265;-67
2022/01/08 09:10:44;;;;;;;;;3.00;3.00;;;;;8.36;74.77;101108.44;5026734;28;45507;-67
2022/01/08 09:13:10;;;;;;;;;5.00;2.25;;;;;8.41;74.46;101103.84;5018287;28;45482;-67
2022/01/08 09:15:40;;;;;;;;;5.00;3.00;;;;;8.47;74.63;101105.34;5014597;28;46268;-67
2022/01/08 09:18:07;;;;;;;;;6.00;3.75;;;;;8.50;74.80;101092.91;5004741;28;45461;-67
2022/01/08 09:20:33;;;;;;;;;4.25;2.00;;;;;8.55;74.74;101097.97;5021796;28;45299;-68
2022/01/08 09:22:58;;;;;;;;;2.50;2.50;;;;;8.57;74.63;101089.09;5045173;28;45529;-66
2022/01/08 09:25:24;;;;;;;;;2.25;1.00;;;;;8.62;74.85;101071.38;5046239;28;45382;-67
2022/01/08 09:27:50;;;;;;;;;2.25;2.25;;;;;8.67;74.81;101081.66;5045655;28;45450;-66
2022/01/08 09:30:15;;;;;;;;;6.00;3.00;;;;;8.73;74.50;101077.91;5043505;28;45367;-66
2022/01/08 09:32:45;;;;;;;;;7.00;2.25;;;;;8.80;74.86;101074.06;5042352;28;45371;-65
2022/01/08 09:35:13;;;;;;;;;5.25;4.25;;;;;8.86;74.55;101068.53;5041066;28;46484;-68
2022/01/08 09:37:40;;;;;;;;;6.00;4.25;;;;;8.92;74.23;101076.94;5044981;28;45335;-67
2022/01/08 09:40:14;;;;;;;;;6.00;2.75;;;;;8.93;74.66;101073.44;5046983;28;45479;-66
2022/01/08 09:42:41;;;;;;;;;12.25;4.25;;;;;8.95;73.78;101061.06;5044679;28;45455;-67
2022/01/08 09:45:08;;;;;;;;;5.00;3.00;;;;;8.96;74.29;101059.28;5062321;28;46366;-66
2022/01/08 09:47:33;;;;;;;;;8.25;3.25;;;;;8.99;74.53;101053.03;5061740;28;45442;-66
2022/01/08 09:49:59;;;;;;;;;4.25;4.25;;;;;9.01;74.60;101054.69;5062435;28;45217;-66
2022/01/08 09:52:25;;;;;;;;;9.25;2.50;;;;;9.03;74.31;101038.84;5061822;28;45186;-67
2022/01/08 09:54:50;;;;;;;;;5.50;5.50;;;;;9.12;74.83;101033.97;5062194;28;45308;-66
2022/01/08 09:57:16;;;;;;;;;4.25;3.00;;;;;9.18;74.38;101017.91;5056341;28;45410;-66
2022/01/08 09:59:42;;;;;;;;;4.50;4.50;;;;;9.22;74.03;101026.50;5042493;28;45415;-66
2022/01/08 10:02:08;;;;;;;;;3.75;3.25;;;;;9.24;74.56;101019.38;5041914;28;45431;-66
2022/01/08 10:04:36;;;;;;;;;5.00;4.00;;;;;9.29;74.67;101012.13;5041870;28;45455;-67
2022/01/08 10:07:21;;;;;;;;;5.75;4.25;;;;;9.33;74.63;101004.94;5041698;28;45372;-67
2022/01/08 10:10:13;;;;;;;;;6.50;2.50;;;;;9.38;74.24;100998.50;5041517;28;45407;-66
2022/01/08 10:12:40;;;;;;;;;3.00;1.00;;;;;9.43;74.31;100999.16;5042106;28;45449;-67
2022/01/08 10:17:52;;;;;;;;;6.25;2.75;;;;;9.49;74.39;100987.47;5037377;28;45405;-67
2022/01/08 10:20:30;;;;;;;;;4.25;4.25;;;;;9.53;74.40;100989.00;5041463;28;45327;-67
2022/01/08 10:23:10;;;;;;;;;6.25;4.25;;;;;9.54;74.46;100974.91;5041861;28;45544;-66
2022/01/08 10:25:35;;;;;;;;;3.00;3.00;;;;;9.52;73.99;100988.16;5041687;28;46236;-67
2022/01/08 10:28:01;;;;;;;;;3.75;2.50;;;;;9.51;74.50;100978.56;5035928;28;45391;-67
2022/01/08 10:30:27;;;;;;;;;9.25;7.50;;;;;9.55;74.51;100981.88;5039911;28;45477;-67
2022/01/08 10:33:00;;;;;;;;;6.50;3.00;;;;;9.59;74.62;100974.69;5041710;28;45326;-66
2022/01/08 10:35:54;;;;;;;;;5.25;3.00;;;;;9.60;74.89;100971.13;5041008;28;45648;-67
2022/01/08 10:38:19;;;;;;;;;8.00;3.00;;;;;9.62;74.49;100964.00;5041654;28;45312;-67
2022/01/08 10:40:45;;;;;;;;;6.75;4.00;;;;;9.63;74.79;100958.66;5041241;28;45307;-67
2022/01/08 10:43:24;;;;;;;;;9.75;5.50;;;;;9.66;74.86;100952.41;5041721;28;45254;-67
2022/01/08 10:45:52;;;;;;;;;6.25;4.00;;;;;9.65;74.98;100943.69;5041227;28;45446;-67
2022/01/08 10:48:31;;;;;;;;;6.75;3.75;;;;;9.67;75.29;100927.81;5040905;28;45232;-67
2022/01/08 10:51:14;;;;;;;;;11.00;2.75;;;;;9.65;74.55;100930.53;5041259;28;45486;-67
2022/01/08 10:53:56;;;;;;;;;5.50;3.00;;;;;9.66;75.27;100932.22;5041417;28;45724;-67
2022/01/08 10:56:39;;;;;;;;;6.75;3.25;;;;;9.67;75.19;100926.03;5041124;28;45536;-67
2022/01/08 10:59:22;;;;;;;;;6.00;4.00;;;;;9.66;75.09;100916.44;5036178;28;45376;-64
2022/01/08 11:02:07;;;;;;;;;4.00;3.25;;;;;9.68;74.84;100906.69;5041512;28;45482;-62
2022/01/08 11:04:43;;;;;;;;;4.00;3.00;;;;;9.68;75.40;100905.84;5041217;28;45503;-60
2022/01/08 11:07:20;;;;;;;;;12.50;4.00;;;;;9.69;75.16;100894.38;5040559;28;45807;-60
2022/01/08 11:09:48;;;;;;;;;7.25;3.00;;;;;9.71;75.65;100888.09;5040504;28;45206;-61
2022/01/08 11:12:23;;;;;;;;;7.50;1.00;;;;;9.71;74.92;100882.81;5041114;28;45604;-60
2022/01/08 11:17:29;;;;;;;;;9.75;4.00;;;;;9.68;75.46;100867.22;5032213;28;45325;-61
2022/01/08 11:20:05;;;;;;;;;7.50;2.75;;;;;9.68;75.38;100861.97;5040450;28;45430;-62
2022/01/08 11:22:33;;;;;;;;;3.75;2.00;;;;;9.69;75.35;100853.13;5040809;28;45372;-60
2022/01/08 11:25:07;;;;;;;;;9.75;3.75;;;;;9.71;75.67;100843.38;5037744;28;45466;-62
2022/01/08 11:27:57;;;;;;;;;7.50;2.00;;;;;9.74;75.09;100843.22;5044269;28;45432;-59
2022/01/08 11:30:25;;;;;;;;;2.75;1.00;;;;;9.72;75.28;100839.00;5049861;28;45356;-59
2022/01/08 11:32:56;;;;;;;;;5.25;3.75;;;;;9.71;75.51;100827.59;5039969;28;45431;-59
2022/01/08 11:35:23;;;;;;;;;7.00;3.00;;;;;9.70;75.78;100822.41;5037815;28;45451;-59
2022/01/08 11:37:50;;;;;;;;;7.50;3.00;;;;;9.76;75.56;100822.09;5039934;28;45389;-59
2022/01/08 11:40:20;;;;;;;;;8.00;4.00;;;;;9.77;75.22;100811.47;5040121;28;45279;-60
2022/01/08 11:42:46;;;;;;;;;12.50;6.00;;;;;9.77;75.40;100792.22;5040252;28;45366;-60
2022/01/08 11:45:34;;;;;;;;;7.00;3.25;;;;;9.77;75.00;100787.81;5039770;28;45388;-60
2022/01/08 11:48:03;;;;;;;;;17.25;5.50;;;;;9.78;75.11;100775.50;5036252;28;45668;-60
2022/01/08 11:50:31;;;;;;;;;9.75;6.00;;;;;9.77;75.47;100773.81;5039588;28;45584;-60
2022/01/08 11:53:24;;;;;;;;;7.50;5.50;;;;;9.76;75.44;100758.97;5022180;28;45324;-63
2022/01/08 11:56:05;;;;;;;;;7.25;3.00;;;;;9.74;75.31;100748.53;5036540;28;45480;-59
2022/01/08 11:58:35;;;;;;;;;4.00;2.00;;;;;9.76;75.34;100738.75;5037988;28;45494;-60